createdAt,value
2022-10-01T00:00:01.437Z,24.23
2022-10-01T00:02:29.445Z,27.70
2022-10-01T00:04:57.690Z,27.88
2022-10-01T00:07:26.056Z,27.98
2022-10-01T00:09:55.299Z,27.88
2022-10-01T00:12:23.247Z,28.27
2022-10-01T00:14:52.112Z,27.65
2022-10-01T00:17:20.082Z,28.83
2022-10-01T00:19:47.992Z,29.13
2022-10-01T00:22:16.014Z,28.20
2022-10-01T00:24:44.252Z,34.53
2022-10-01T00:27:15.646Z,31.58
2022-10-01T00:29:45.337Z,31.83
2022-10-01T00:32:13.324Z,33.17
2022-10-01T00:34:41.233Z,35.25
2022-10-01T00:37:10.357Z,29.15
2022-10-01T00:39:38.486Z,29.42
2022-10-01T00:42:19.471Z,29.15
2022-10-01T00:44:47.617Z,30.52
2022-10-01T00:47:25.899Z,33.17
2022-10-01T00:49:59.529Z,28.98
2022-10-01T00:52:32.177Z,29.13
2022-10-01T00:55:04.310Z,28.38
2022-10-01T00:57:34.478Z,30.60
2022-10-01T01:00:05.972Z,29.73
2022-10-01T01:02:34.133Z,27.23
2022-10-01T01:05:02.697Z,30.35
2022-10-01T01:07:32.497Z,31.70
2022-10-01T01:10:01.444Z,26.63
2022-10-01T01:12:44.347Z,30.42
2022-10-01T01:15:19.275Z,31.80
2022-10-01T01:17:55.681Z,29.23
2022-10-01T01:20:45.837Z,29.15
2022-10-01T01:23:54.563Z,29.90
2022-10-01T01:26:32.255Z,30.60
2022-10-01T01:29:06.769Z,26.30
2022-10-01T01:31:40.090Z,27.52
2022-10-01T01:34:12.918Z,32.45
2022-10-01T01:36:46.095Z,26.77
2022-10-01T01:39:16.972Z,26.90
2022-10-01T01:41:50.205Z,28.10
2022-10-01T01:44:27.175Z,28.42
2022-10-01T01:46:57.474Z,33.65
2022-10-01T01:49:26.601Z,27.50
2022-10-01T01:52:01.939Z,27.08
2022-10-01T01:54:30.511Z,29.05
2022-10-01T01:56:59.545Z,29.60
2022-10-01T01:59:29.265Z,29.27
2022-10-01T02:01:58.933Z,29.13
2022-10-01T02:04:31.518Z,31.65
2022-10-01T02:07:16.594Z,28.83
2022-10-01T02:09:54.090Z,30.73
2022-10-01T02:12:33.430Z,29.80
2022-10-01T02:15:10.259Z,26.70
2022-10-01T02:17:50.605Z,30.73
2022-10-01T02:20:23.841Z,28.20
2022-10-01T02:22:57.020Z,29.35
2022-10-01T02:25:33.008Z,29.45
2022-10-01T02:28:07.589Z,29.23
2022-10-01T02:30:42.480Z,34.75
2022-10-01T02:33:14.968Z,32.97
2022-10-01T02:35:46.974Z,29.42
2022-10-01T02:38:16.770Z,34.65
2022-10-01T02:40:47.515Z,33.70
2022-10-01T02:43:19.718Z,30.13
2022-10-01T02:45:53.112Z,33.47
2022-10-01T02:48:23.715Z,26.50
2022-10-01T02:50:54.438Z,32.65
2022-10-01T02:53:25.925Z,33.10
2022-10-01T02:55:54.952Z,27.63
2022-10-01T02:58:22.190Z,29.55
2022-10-01T03:00:53.040Z,32.53
2022-10-01T03:03:21.212Z,29.60
2022-10-01T03:05:51.460Z,28.23
2022-10-01T03:08:19.958Z,32.72
2022-10-01T03:10:47.919Z,29.08
2022-10-01T03:13:17.094Z,29.92
2022-10-01T03:15:50.124Z,27.48
2022-10-01T03:18:19.598Z,27.00
2022-10-01T03:20:49.094Z,26.48
2022-10-01T03:23:17.028Z,29.88
2022-10-01T03:25:44.956Z,28.42
2022-10-01T03:28:13.443Z,23.42
2022-10-01T03:30:41.431Z,27.83
2022-10-01T03:33:10.382Z,27.95
2022-10-01T03:35:41.700Z,26.92
2022-10-01T03:38:09.619Z,28.70
2022-10-01T03:40:39.023Z,28.52
2022-10-01T03:43:07.282Z,26.05
2022-10-01T03:45:35.271Z,28.42
2022-10-01T03:48:05.530Z,24.92
2022-10-01T03:50:33.482Z,25.02
2022-10-01T03:53:02.799Z,26.95
2022-10-01T03:55:31.351Z,29.00
2022-10-01T03:57:59.517Z,25.63
2022-10-01T04:00:27.812Z,23.15
2022-10-01T04:02:55.792Z,25.35
2022-10-01T04:05:25.574Z,21.50
2022-10-01T04:07:53.522Z,20.95
2022-10-01T04:10:22.786Z,22.73
2022-10-01T04:12:50.753Z,22.25
2022-10-01T04:15:18.713Z,19.95
2022-10-01T04:17:46.611Z,21.58
2022-10-01T04:20:14.698Z,24.58
2022-10-01T04:22:44.720Z,20.00
2022-10-01T04:25:13.924Z,22.20
2022-10-01T04:27:56.987Z,24.27
2022-10-01T04:30:25.216Z,25.98
2022-10-01T04:32:53.148Z,23.17
2022-10-01T04:35:21.771Z,20.45
2022-10-01T04:37:56.014Z,21.90
2022-10-01T04:40:23.926Z,21.65
2022-10-01T04:42:54.822Z,19.42
2022-10-01T04:45:22.717Z,19.42
2022-10-01T04:47:52.228Z,20.23
2022-10-01T04:50:20.856Z,19.42
2022-10-01T04:52:51.214Z,20.08
2022-10-01T04:55:20.642Z,23.98
2022-10-01T04:57:48.837Z,20.45
2022-10-01T05:00:21.647Z,17.10
2022-10-01T05:02:51.196Z,21.52
2022-10-01T05:05:21.134Z,40.22
2022-10-01T05:07:50.702Z,18.08
2022-10-01T05:10:20.659Z,26.42
2022-10-01T05:12:49.568Z,20.88
2022-10-01T05:15:20.592Z,21.05
2022-10-01T05:17:48.953Z,32.17
2022-10-01T05:20:19.162Z,29.02
2022-10-01T05:22:48.926Z,22.20
2022-10-01T05:25:17.409Z,21.35
2022-10-01T05:27:45.458Z,22.98
2022-10-01T05:30:18.609Z,20.88
2022-10-01T05:32:56.221Z,18.90
2022-10-01T05:35:24.589Z,24.23
2022-10-01T05:37:56.853Z,20.10
2022-10-01T05:40:28.398Z,18.42
2022-10-01T05:42:56.843Z,18.88
2022-10-01T05:45:25.017Z,18.70
2022-10-01T05:48:02.146Z,18.80
2022-10-01T05:50:32.124Z,20.38
2022-10-01T05:53:00.741Z,21.10
2022-10-01T05:55:32.365Z,16.48
2022-10-01T05:58:02.049Z,17.88
2022-10-01T06:00:31.572Z,16.92
2022-10-01T06:03:02.901Z,14.48
2022-10-01T06:05:32.611Z,21.30
2022-10-01T06:08:00.908Z,18.27
2022-10-01T06:10:30.253Z,23.35
2022-10-01T06:13:01.088Z,32.45
2022-10-01T06:15:29.946Z,22.02
2022-10-01T06:17:58.190Z,19.48
2022-10-01T06:20:27.719Z,20.73
2022-10-01T06:22:58.013Z,14.68
2022-10-01T06:25:30.767Z,18.05
2022-10-01T06:28:00.616Z,13.82
2022-10-01T06:30:29.839Z,13.57
2022-10-01T06:33:03.103Z,13.95
2022-10-01T06:35:33.646Z,15.38
2022-10-01T06:38:02.632Z,15.57
2022-10-01T06:40:31.316Z,12.60
2022-10-01T06:42:59.986Z,15.40
2022-10-01T06:45:28.522Z,13.57
2022-10-01T06:48:02.595Z,17.90
2022-10-01T06:50:33.357Z,17.90
2022-10-01T06:53:02.828Z,15.50
2022-10-01T06:55:33.439Z,21.05
2022-10-01T06:58:03.573Z,17.08
2022-10-01T07:00:33.999Z,12.35
2022-10-01T07:05:38.556Z,22.13
2022-10-01T07:08:09.659Z,15.57
2022-10-01T07:10:38.357Z,12.95
2022-10-01T07:13:10.623Z,19.90
2022-10-01T07:15:39.131Z,15.82
2022-10-01T07:18:09.457Z,16.30
2022-10-01T07:20:40.682Z,18.10
2022-10-01T07:23:12.006Z,17.00
2022-10-01T07:25:43.311Z,15.75
2022-10-01T07:28:16.614Z,36.45
2022-10-01T07:30:49.762Z,26.25
2022-10-01T07:33:19.958Z,20.33
2022-10-01T07:35:49.400Z,33.33
2022-10-01T07:38:17.495Z,23.77
2022-10-01T07:40:54.250Z,18.05
2022-10-01T07:43:22.661Z,17.98
2022-10-01T07:45:52.549Z,23.63
2022-10-01T07:48:22.866Z,15.48
2022-10-01T07:50:52.275Z,20.08
2022-10-01T07:53:20.873Z,14.10
2022-10-01T07:55:48.981Z,19.92
2022-10-01T07:58:18.699Z,21.83
2022-10-01T08:00:46.691Z,22.55
2022-10-01T08:03:14.624Z,33.70
2022-10-01T08:05:43.711Z,14.68
2022-10-01T08:08:13.163Z,27.40
2022-10-01T08:10:42.846Z,16.73
2022-10-01T08:13:15.202Z,18.00
2022-10-01T08:15:44.162Z,14.38
2022-10-01T08:18:12.928Z,18.27
2022-10-01T08:20:41.987Z,17.80
2022-10-01T08:23:14.211Z,17.75
2022-10-01T08:25:43.211Z,15.13
2022-10-01T08:28:12.818Z,16.85
2022-10-01T08:30:42.650Z,12.60
2022-10-01T08:33:12.935Z,20.83
2022-10-01T08:35:41.789Z,21.70
2022-10-01T08:38:09.825Z,14.57
2022-10-01T08:40:44.966Z,13.95
2022-10-01T08:43:23.037Z,24.75
2022-10-01T08:45:53.962Z,18.50
2022-10-01T08:48:32.889Z,14.00
2022-10-01T08:51:05.345Z,13.52
2022-10-01T08:53:38.309Z,14.90
2022-10-01T08:56:11.726Z,12.80
2022-10-01T08:58:44.927Z,16.15
2022-10-01T09:01:13.277Z,16.45
2022-10-01T09:03:41.647Z,12.10
2022-10-01T09:06:20.263Z,15.95
2022-10-01T09:09:18.417Z,23.20
2022-10-01T09:12:03.207Z,15.65
2022-10-01T09:14:45.316Z,12.98
2022-10-01T09:17:24.463Z,16.52
2022-10-01T09:20:08.192Z,12.60
2022-10-01T09:22:40.049Z,14.75
2022-10-01T09:25:14.835Z,16.75
2022-10-01T09:27:44.592Z,15.02
2022-10-01T09:30:16.435Z,12.63
2022-10-01T09:32:47.806Z,14.98
2022-10-01T09:35:31.384Z,11.13
2022-10-01T09:38:04.402Z,10.20
2022-10-01T09:40:37.066Z,13.38
2022-10-01T09:43:08.351Z,10.02
2022-10-01T09:45:38.098Z,14.95
2022-10-01T09:48:18.634Z,15.02
2022-10-01T09:50:55.305Z,10.60
2022-10-01T09:53:29.963Z,14.55
2022-10-01T09:56:06.695Z,6.03
2022-10-01T09:58:39.719Z,9.27
2022-10-01T10:03:42.421Z,8.93
2022-10-01T10:06:10.636Z,6.38
2022-10-01T10:08:40.584Z,9.95
2022-10-01T10:11:11.186Z,6.78
2022-10-01T10:13:42.149Z,12.02
2022-10-01T10:16:16.625Z,9.77
2022-10-01T10:18:52.117Z,14.65
2022-10-01T10:21:25.323Z,10.02
2022-10-01T10:23:55.066Z,12.32
2022-10-01T10:26:31.436Z,12.27
2022-10-01T10:29:02.817Z,11.93
2022-10-01T10:31:40.162Z,10.43
2022-10-01T10:34:14.882Z,12.30
2022-10-01T10:36:44.570Z,11.50
2022-10-01T10:39:21.218Z,9.35
2022-10-01T10:41:50.990Z,12.65
2022-10-01T10:44:24.300Z,12.35
2022-10-01T10:46:54.780Z,11.50
2022-10-01T10:49:27.994Z,14.70
2022-10-01T10:51:57.516Z,13.70
2022-10-01T10:54:30.443Z,13.85
2022-10-01T10:59:34.459Z,13.90
2022-10-01T11:02:04.958Z,14.77
2022-10-01T11:04:42.858Z,14.88
2022-10-01T11:07:13.405Z,15.50
2022-10-01T11:10:04.500Z,15.15
2022-10-01T11:12:47.300Z,15.57
2022-10-01T11:15:33.118Z,13.85
2022-10-01T11:18:24.744Z,15.82
2022-10-01T11:21:05.582Z,15.05
2022-10-01T11:26:25.320Z,12.77
2022-10-01T11:29:08.968Z,12.65
2022-10-01T11:31:50.817Z,14.23
2022-10-01T11:34:40.014Z,16.48
2022-10-01T11:37:18.387Z,12.68
2022-10-01T11:39:48.612Z,10.35
2022-10-01T11:42:22.792Z,11.48
2022-10-01T11:45:00.561Z,9.90
2022-10-01T11:47:35.192Z,11.20
2022-10-01T11:50:14.464Z,13.13
2022-10-01T11:52:47.537Z,11.57
2022-10-01T11:55:38.762Z,13.07
2022-10-01T11:58:31.439Z,12.93
2022-10-01T12:01:05.106Z,14.85
2022-10-01T12:03:44.911Z,14.70
2022-10-01T12:06:15.001Z,13.52
2022-10-01T12:08:49.326Z,11.75
2022-10-01T12:11:23.306Z,11.07
2022-10-01T12:13:59.923Z,13.30
2022-10-01T12:16:40.173Z,15.73
2022-10-01T12:19:17.334Z,12.00
2022-10-01T12:21:51.883Z,12.27
2022-10-01T12:24:27.304Z,16.13
2022-10-01T12:27:06.922Z,13.80
2022-10-01T12:29:45.184Z,9.35
2022-10-01T12:32:21.862Z,8.27
2022-10-01T12:35:00.596Z,12.23
2022-10-01T12:37:44.696Z,10.52
2022-10-01T12:40:30.713Z,9.13
2022-10-01T12:43:36.782Z,13.50
2022-10-01T12:48:44.855Z,9.07
2022-10-01T12:51:34.373Z,11.98
2022-10-01T12:54:30.988Z,13.18
2022-10-01T12:57:06.787Z,15.80
2022-10-01T12:59:50.336Z,14.82
2022-10-01T13:02:44.144Z,15.50
2022-10-01T13:05:24.887Z,13.38
2022-10-01T13:08:09.954Z,17.67
2022-10-01T13:10:56.993Z,14.98
2022-10-01T13:13:27.306Z,14.73
2022-10-01T13:16:03.481Z,12.48
2022-10-01T13:18:40.765Z,12.15
2022-10-01T13:21:15.632Z,14.68
2022-10-01T13:23:50.954Z,14.00
2022-10-01T13:26:27.499Z,11.05
2022-10-01T13:29:16.699Z,14.48
2022-10-01T13:31:56.799Z,16.70
2022-10-01T13:34:37.564Z,14.50
2022-10-01T13:37:17.225Z,11.70
2022-10-01T13:39:47.727Z,15.13
2022-10-01T13:42:24.186Z,14.27
2022-10-01T13:44:57.832Z,11.30
2022-10-01T13:47:26.664Z,15.43
2022-10-01T13:49:57.582Z,17.92
2022-10-01T13:52:25.842Z,21.58
2022-10-01T13:54:56.914Z,17.40
2022-10-01T13:57:36.960Z,14.25
2022-10-01T14:00:22.641Z,22.38
2022-10-01T14:03:03.932Z,11.98
2022-10-01T14:05:36.806Z,16.25
2022-10-01T14:11:00.439Z,14.95
2022-10-01T14:13:48.538Z,14.82
2022-10-01T14:16:20.746Z,14.75
2022-10-01T14:18:50.732Z,19.50
2022-10-01T14:21:45.077Z,11.00
2022-10-01T14:24:23.874Z,12.25
2022-10-01T14:26:58.154Z,22.45
2022-10-01T14:29:41.476Z,24.25
2022-10-01T14:32:27.250Z,20.75
2022-10-01T14:35:06.776Z,26.38
2022-10-01T14:37:39.313Z,34.35
2022-10-01T14:40:17.918Z,32.90
2022-10-01T14:42:59.990Z,23.65
2022-10-01T14:45:28.825Z,22.50
2022-10-01T14:48:03.372Z,20.83
2022-10-01T14:50:34.867Z,17.52
2022-10-01T14:53:02.970Z,19.67
2022-10-01T14:55:31.648Z,30.55
2022-10-01T14:58:01.141Z,22.58
2022-10-01T15:00:32.225Z,32.05
2022-10-01T15:03:10.148Z,38.72
2022-10-01T15:05:38.369Z,30.23
2022-10-01T15:08:13.629Z,25.38
2022-10-01T15:10:48.995Z,26.60
2022-10-01T15:13:25.289Z,24.75
2022-10-01T15:15:55.296Z,26.67
2022-10-01T15:18:23.957Z,22.10
2022-10-01T15:20:57.740Z,10.40
2022-10-01T15:23:28.936Z,29.35
2022-10-01T15:25:58.914Z,23.50
2022-10-01T15:28:31.929Z,15.50
2022-10-01T15:31:03.296Z,28.08
2022-10-01T15:33:34.060Z,25.40
2022-10-01T15:36:05.047Z,16.50
2022-10-01T15:38:34.261Z,23.23
2022-10-01T15:41:26.754Z,17.50
2022-10-01T15:43:53.723Z,15.20
2022-10-01T15:46:31.323Z,12.95
2022-10-01T15:49:13.758Z,14.90
2022-10-01T15:52:09.063Z,12.23
2022-10-01T15:54:39.785Z,8.88
2022-10-01T15:57:08.899Z,8.23
2022-10-01T15:59:40.995Z,9.35
2022-10-01T16:02:12.660Z,15.23
2022-10-01T16:04:41.183Z,10.10
2022-10-01T16:07:20.417Z,11.45
2022-10-01T16:09:58.135Z,11.57
2022-10-01T16:12:29.204Z,8.02
2022-10-01T16:15:02.840Z,8.77
2022-10-01T16:17:35.952Z,8.73
2022-10-01T16:20:35.841Z,10.38
2022-10-01T16:23:40.449Z,7.82
2022-10-01T16:26:36.100Z,9.65
2022-10-01T16:29:20.313Z,14.27
2022-10-01T16:31:48.627Z,14.32
2022-10-01T16:34:19.223Z,17.20
2022-10-01T16:36:48.108Z,13.80
2022-10-01T16:39:16.142Z,15.40
2022-10-01T16:42:01.401Z,13.00
2022-10-01T16:44:40.607Z,10.13
2022-10-01T16:47:10.701Z,11.20
2022-10-01T16:49:38.743Z,13.00
2022-10-01T16:52:06.738Z,14.20
2022-10-01T16:54:35.166Z,13.45
2022-10-01T16:57:04.698Z,12.07
2022-10-01T16:59:33.738Z,12.00
2022-10-01T17:02:04.370Z,13.32
2022-10-01T17:04:34.052Z,14.38
2022-10-01T17:07:02.556Z,16.38
2022-10-01T17:09:31.164Z,15.50
2022-10-01T17:12:01.969Z,16.45
2022-10-01T17:14:31.382Z,16.73
2022-10-01T17:16:59.379Z,19.83
2022-10-01T17:19:28.041Z,19.63
2022-10-01T17:21:56.078Z,18.42
2022-10-01T17:24:24.063Z,16.88
2022-10-01T17:26:51.994Z,14.57
2022-10-01T17:29:19.913Z,16.63
2022-10-01T17:31:53.295Z,18.65
2022-10-01T17:34:22.072Z,19.70
2022-10-01T17:36:50.205Z,21.35
2022-10-01T17:39:18.447Z,14.57
2022-10-01T17:41:46.661Z,19.25
2022-10-01T17:44:14.781Z,17.73
2022-10-01T17:46:42.985Z,18.52
2022-10-01T17:49:13.166Z,19.40
2022-10-01T17:51:41.121Z,17.02
2022-10-01T17:54:09.055Z,15.63
2022-10-01T17:56:38.809Z,14.10
2022-10-01T17:59:06.938Z,13.80
2022-10-01T18:01:35.480Z,14.40
2022-10-01T18:04:05.567Z,15.55
2022-10-01T18:06:35.092Z,16.55
2022-10-01T18:09:03.310Z,17.67
2022-10-01T18:11:31.512Z,14.38
2022-10-01T18:13:59.692Z,15.93
2022-10-01T18:16:28.599Z,12.55
2022-10-01T18:19:52.400Z,11.23
2022-10-01T18:21:47.270Z,12.77
2022-10-01T18:24:16.646Z,10.70
2022-10-01T18:26:45.566Z,13.48
2022-10-01T18:29:19.368Z,8.75
2022-10-01T18:31:51.560Z,9.30
2022-10-01T18:34:25.909Z,8.93
2022-10-01T18:37:00.615Z,7.82
2022-10-01T18:39:36.029Z,6.53
2022-10-01T18:42:11.965Z,10.68
2022-10-01T18:44:40.127Z,11.50
2022-10-01T18:47:19.253Z,8.07
2022-10-01T18:50:11.320Z,7.38
2022-10-01T18:52:49.961Z,8.52
2022-10-01T18:55:40.322Z,9.38
2022-10-01T18:58:26.559Z,7.78
2022-10-01T19:01:07.388Z,9.82
2022-10-01T19:04:00.121Z,11.98
2022-10-01T19:06:44.973Z,10.05
2022-10-01T19:09:23.504Z,13.30
2022-10-01T19:12:03.951Z,12.30
2022-10-01T19:15:00.433Z,12.43
2022-10-01T19:17:50.765Z,17.35
2022-10-01T19:20:45.101Z,13.65
2022-10-01T19:23:42.784Z,16.20
2022-10-01T19:26:17.573Z,14.23
2022-10-01T19:28:59.574Z,12.32
2022-10-01T19:31:36.198Z,13.98
2022-10-01T19:34:10.520Z,18.45
2022-10-01T19:36:42.396Z,16.30
2022-10-01T19:39:20.556Z,14.13
2022-10-01T19:41:54.520Z,13.77
2022-10-01T19:44:28.988Z,14.07
2022-10-01T19:47:06.661Z,12.23
2022-10-01T19:49:38.164Z,14.63
2022-10-01T19:52:13.154Z,10.40
2022-10-01T19:54:46.068Z,13.77
2022-10-01T19:59:57.363Z,10.98
2022-10-01T20:02:34.160Z,11.50
2022-10-01T20:05:07.683Z,10.30
2022-10-01T20:07:45.914Z,13.70
2022-10-01T20:10:20.953Z,16.17
2022-10-01T20:13:02.284Z,14.57
2022-10-01T20:15:40.496Z,14.52
2022-10-01T20:18:20.939Z,15.13
2022-10-01T20:21:09.963Z,17.85
2022-10-01T20:23:46.704Z,10.98
2022-10-01T20:26:26.640Z,11.65
2022-10-01T20:29:11.668Z,12.48
2022-10-01T20:31:47.243Z,11.65
2022-10-01T20:34:27.470Z,7.78
2022-10-01T20:37:08.241Z,9.23
2022-10-01T20:39:42.077Z,10.57
2022-10-01T20:42:19.054Z,12.45
2022-10-01T20:44:48.940Z,11.95
2022-10-01T20:47:22.256Z,13.10
2022-10-01T20:49:56.802Z,11.30
2022-10-01T20:52:32.456Z,10.05
2022-10-01T20:55:03.638Z,8.82
2022-10-01T20:57:35.525Z,8.10
2022-10-01T21:00:09.298Z,10.63
2022-10-01T21:02:43.442Z,13.55
2022-10-01T21:05:17.455Z,10.35
2022-10-01T21:07:53.149Z,14.43
2022-10-01T21:10:29.302Z,16.67
2022-10-01T21:13:06.495Z,19.88
2022-10-01T21:15:49.189Z,15.27
2022-10-01T21:18:28.980Z,20.55
2022-10-01T21:21:07.257Z,17.88
2022-10-01T21:23:47.115Z,14.77
2022-10-01T21:26:25.386Z,16.15
2022-10-01T21:29:15.688Z,11.40
2022-10-01T21:31:55.279Z,16.98
2022-10-01T21:34:30.961Z,20.35
2022-10-01T21:37:06.411Z,12.30
2022-10-01T21:39:40.264Z,14.55
2022-10-01T21:42:16.793Z,13.40
2022-10-01T21:45:09.979Z,12.10
2022-10-01T21:47:54.995Z,18.55
2022-10-01T21:50:31.073Z,18.90
2022-10-01T21:53:16.991Z,14.27
2022-10-01T21:56:06.480Z,11.93
2022-10-01T21:58:47.476Z,13.98
2022-10-01T22:01:24.660Z,12.40
2022-10-01T22:04:02.200Z,17.23
2022-10-01T22:06:37.378Z,11.80
2022-10-01T22:09:14.258Z,19.27
2022-10-01T22:11:49.330Z,18.88
2022-10-01T22:14:19.001Z,19.17
2022-10-01T22:16:53.168Z,13.65
2022-10-01T22:19:28.452Z,18.00
2022-10-01T22:22:03.745Z,16.80
2022-10-01T22:24:37.489Z,17.48
2022-10-01T22:27:10.612Z,15.38
2022-10-01T22:29:43.630Z,20.67
2022-10-01T22:32:14.483Z,14.13
2022-10-01T22:34:47.733Z,18.70
2022-10-01T22:37:22.469Z,13.65
2022-10-01T22:39:56.368Z,17.83
2022-10-01T22:42:30.489Z,18.02
2022-10-01T22:45:02.591Z,15.15
2022-10-01T22:47:59.536Z,13.98
2022-10-01T22:50:43.134Z,16.00
2022-10-01T22:53:24.018Z,14.15
2022-10-01T22:55:55.848Z,16.48
2022-10-01T22:58:42.951Z,15.52
2022-10-01T23:01:19.480Z,13.35
2022-10-01T23:03:57.278Z,11.18
2022-10-01T23:06:36.968Z,15.93
2022-10-01T23:09:12.498Z,9.23
2022-10-01T23:11:56.702Z,14.52
2022-10-01T23:14:44.486Z,16.42
2022-10-01T23:17:19.795Z,16.70
2022-10-01T23:19:57.039Z,13.90
2022-10-01T23:22:40.326Z,10.95
2022-10-01T23:25:19.172Z,16.08
2022-10-01T23:28:01.242Z,19.63
2022-10-01T23:30:37.915Z,16.23
2022-10-01T23:33:29.375Z,15.38
2022-10-01T23:36:24.120Z,12.05
2022-10-01T23:39:18.194Z,14.73
2022-10-01T23:41:52.036Z,16.95
2022-10-01T23:44:27.001Z,14.38
2022-10-01T23:46:55.961Z,15.60
2022-10-01T23:49:28.885Z,15.13
2022-10-01T23:52:03.763Z,15.50
2022-10-01T23:54:39.498Z,13.98
2022-10-01T23:57:14.621Z,21.75
2022-10-01T23:59:48.195Z,18.20
